RYR7ZA EPKK-EVRA
Flight info
| Callsign | RYR7ZA |
|---|---|
| Flight time | N/A |
| Altitude | 37000 |
| Route | NAVUR DCT SUWGI M857 BOKSU DCT GUNTA |
| Aircraft | B738/M-SDE2E3FGHIRWXY/LB1 |
Departure
| Time | 2026-05-06 17:24 |
|---|---|
| Airport | Kraków John Paul II International Airport (EPKK) |
Arrival
| Time | N/A |
|---|---|
| Airport | Riga International Airport (EVRA) |
| Time | Latitude | Longitude | Altitude | Speed | Heading |
|---|---|---|---|---|---|
| 2026-05-06 17:05 | 50.07293 | 19.79886 | 799 ft | 0 kts | 167° |
| 2026-05-06 17:05 | 50.07288 | 19.79888 | 799 ft | 0 kts | 168° |
| 2026-05-06 17:17 | 50.07290 | 19.79887 | 799 ft | 2 kts | 168° |
| 2026-05-06 17:18 | 50.07315 | 19.79879 | 799 ft | 4 kts | 168° |
| 2026-05-06 17:18 | 50.07341 | 19.79870 | 799 ft | 3 kts | 168° |
| 2026-05-06 17:18 | 50.07361 | 19.79860 | 799 ft | 4 kts | 136° |
| 2026-05-06 17:18 | 50.07371 | 19.79832 | 799 ft | 4 kts | 83° |
| 2026-05-06 17:19 | 50.07367 | 19.79804 | 799 ft | 3 kts | 78° |
| 2026-05-06 17:19 | 50.07367 | 19.79801 | 799 ft | 1 kts | 78° |
| 2026-05-06 17:21 | 50.07367 | 19.79805 | 799 ft | 3 kts | 78° |
| 2026-05-06 17:21 | 50.07377 | 19.79870 | 799 ft | 8 kts | 78° |
| 2026-05-06 17:21 | 50.07392 | 19.79985 | 799 ft | 14 kts | 78° |
| 2026-05-06 17:21 | 50.07414 | 19.80141 | 799 ft | 15 kts | 78° |
| 2026-05-06 17:22 | 50.07436 | 19.80293 | 799 ft | 14 kts | 77° |
| 2026-05-06 17:22 | 50.07498 | 19.80390 | 799 ft | 13 kts | 17° |
| 2026-05-06 17:22 | 50.07587 | 19.80422 | 799 ft | 13 kts | 354° |
| 2026-05-06 17:22 | 50.07677 | 19.80393 | 799 ft | 15 kts | 348° |
| 2026-05-06 17:23 | 50.07820 | 19.80345 | 799 ft | 23 kts | 347° |
| 2026-05-06 17:23 | 50.07964 | 19.80297 | 799 ft | 18 kts | 348° |
| 2026-05-06 17:23 | 50.08011 | 19.80196 | 799 ft | 12 kts | 257° |
| 2026-05-06 17:23 | 50.07967 | 19.79879 | 799 ft | 61 kts | 257° |
| 2026-05-06 17:24 | 50.07818 | 19.78818 | 802 ft | 137 kts | 258° |
| 2026-05-06 17:24 | 50.07586 | 19.77172 | 1126 ft | 171 kts | 258° |
| 2026-05-06 17:24 | 50.07341 | 19.75411 | 2128 ft | 165 kts | 256° |
| 2026-05-06 17:24 | 50.07103 | 19.73671 | 2947 ft | 166 kts | 254° |
| 2026-05-06 17:25 | 50.06850 | 19.71936 | 3730 ft | 164 kts | 253° |
| 2026-05-06 17:25 | 50.06590 | 19.70174 | 4353 ft | 176 kts | 251° |
| 2026-05-06 17:25 | 50.06326 | 19.68148 | 4590 ft | 206 kts | 263° |
| 2026-05-06 17:25 | 50.06678 | 19.65815 | 4807 ft | 238 kts | 291° |
| 2026-05-06 17:26 | 50.07739 | 19.63663 | 5111 ft | 271 kts | 319° |
| 2026-05-06 17:26 | 50.09505 | 19.62377 | 5751 ft | 288 kts | 341° |
| 2026-05-06 17:26 | 50.11463 | 19.61686 | 6548 ft | 294 kts | 346° |
| 2026-05-06 17:26 | 50.13528 | 19.61763 | 7324 ft | 303 kts | 16° |
| 2026-05-06 17:27 | 50.15442 | 19.63105 | 8245 ft | 303 kts | 32° |
| 2026-05-06 17:27 | 50.17108 | 19.65163 | 8999 ft | 308 kts | 42° |
| 2026-05-06 17:27 | 50.18722 | 19.67408 | 9772 ft | 312 kts | 43° |
| 2026-05-06 17:27 | 50.20361 | 19.69706 | 10286 ft | 327 kts | 43° |
| 2026-05-06 17:28 | 50.22127 | 19.72151 | 10467 ft | 351 kts | 42° |
| 2026-05-06 17:28 | 50.24000 | 19.74721 | 10938 ft | 363 kts | 42° |
| 2026-05-06 17:28 | 50.25913 | 19.77333 | 11668 ft | 367 kts | 41° |
| 2026-05-06 17:28 | 50.27843 | 19.79963 | 12463 ft | 369 kts | 41° |
| 2026-05-06 17:29 | 50.29791 | 19.82621 | 13210 ft | 373 kts | 41° |
| 2026-05-06 17:29 | 50.31733 | 19.85274 | 13893 ft | 377 kts | 41° |
| 2026-05-06 17:29 | 50.33740 | 19.87971 | 14497 ft | 383 kts | 37° |
| 2026-05-06 17:29 | 50.36106 | 19.89862 | 15100 ft | 384 kts | 14° |
| 2026-05-06 17:30 | 50.38744 | 19.90397 | 15747 ft | 383 kts | 358° |
| 2026-05-06 17:30 | 50.41421 | 19.90375 | 16366 ft | 387 kts | 356° |
| 2026-05-06 17:30 | 50.44136 | 19.90336 | 16950 ft | 393 kts | 356° |
| 2026-05-06 17:30 | 50.46884 | 19.90336 | 17547 ft | 398 kts | 357° |
| 2026-05-06 17:31 | 50.49667 | 19.90364 | 18157 ft | 402 kts | 357° |
| 2026-05-06 17:31 | 50.52476 | 19.90406 | 18711 ft | 405 kts | 357° |
| 2026-05-06 17:31 | 50.55301 | 19.90451 | 19293 ft | 407 kts | 357° |
| 2026-05-06 17:31 | 50.58143 | 19.90495 | 19863 ft | 410 kts | 357° |
| 2026-05-06 17:32 | 50.61012 | 19.90536 | 20387 ft | 414 kts | 357° |
| 2026-05-06 17:32 | 50.63912 | 19.90577 | 20925 ft | 417 kts | 357° |
| 2026-05-06 17:32 | 50.66785 | 19.90629 | 21456 ft | 420 kts | 358° |
| 2026-05-06 17:32 | 50.69712 | 19.90693 | 21989 ft | 423 kts | 358° |
| 2026-05-06 17:33 | 50.72668 | 19.90759 | 22508 ft | 426 kts | 358° |
| 2026-05-06 17:33 | 50.75640 | 19.90822 | 23014 ft | 429 kts | 358° |
| 2026-05-06 17:33 | 50.78633 | 19.90876 | 23475 ft | 432 kts | 357° |
| 2026-05-06 17:33 | 50.81652 | 19.90925 | 23896 ft | 435 kts | 357° |
| 2026-05-06 17:34 | 50.84692 | 19.90974 | 24287 ft | 438 kts | 357° |
| 2026-05-06 17:34 | 50.87748 | 19.91026 | 24680 ft | 441 kts | 357° |
| 2026-05-06 17:34 | 50.90823 | 19.91066 | 25071 ft | 443 kts | 356° |
| 2026-05-06 17:34 | 50.93916 | 19.91078 | 25457 ft | 446 kts | 356° |
| 2026-05-06 17:35 | 50.97027 | 19.91084 | 25837 ft | 449 kts | 356° |
| 2026-05-06 17:35 | 51.00163 | 19.91215 | 26194 ft | 455 kts | 4° |
| 2026-05-06 17:35 | 51.03224 | 19.92617 | 26516 ft | 464 kts | 25° |
| 2026-05-06 17:36 | 51.08891 | 19.97702 | 27192 ft | 472 kts | 29° |
| 2026-05-06 17:36 | 51.11737 | 20.00361 | 27498 ft | 475 kts | 29° |
| 2026-05-06 17:36 | 51.14596 | 20.03028 | 27863 ft | 477 kts | 29° |
| 2026-05-06 17:36 | 51.17472 | 20.05692 | 28209 ft | 479 kts | 28° |
| 2026-05-06 17:37 | 51.20368 | 20.08357 | 28536 ft | 482 kts | 28° |
| 2026-05-06 17:37 | 51.23292 | 20.11033 | 28834 ft | 485 kts | 28° |
| 2026-05-06 17:37 | 51.26229 | 20.13717 | 29153 ft | 488 kts | 28° |
| 2026-05-06 17:37 | 51.29183 | 20.16414 | 29430 ft | 491 kts | 28° |
| 2026-05-06 17:38 | 51.32159 | 20.19133 | 29720 ft | 494 kts | 28° |
| 2026-05-06 17:38 | 51.35146 | 20.21867 | 29995 ft | 496 kts | 28° |
| 2026-05-06 17:38 | 51.38146 | 20.24618 | 30277 ft | 497 kts | 28° |
| 2026-05-06 17:38 | 51.41143 | 20.27371 | 30608 ft | 496 kts | 28° |
| 2026-05-06 17:39 | 51.44130 | 20.30121 | 31016 ft | 494 kts | 27° |
| 2026-05-06 17:39 | 51.47101 | 20.32862 | 31481 ft | 490 kts | 27° |
| 2026-05-06 17:39 | 51.50048 | 20.35584 | 31878 ft | 488 kts | 27° |
| 2026-05-06 17:39 | 51.52990 | 20.38304 | 32198 ft | 488 kts | 27° |
| 2026-05-06 17:40 | 51.55927 | 20.41024 | 32543 ft | 487 kts | 27° |
| 2026-05-06 17:40 | 51.58815 | 20.43703 | 32919 ft | 485 kts | 27° |
| 2026-05-06 17:40 | 51.61729 | 20.46410 | 33320 ft | 482 kts | 27° |
| 2026-05-06 17:40 | 51.64632 | 20.49111 | 33689 ft | 480 kts | 27° |
| 2026-05-06 17:41 | 51.67521 | 20.51802 | 33984 ft | 479 kts | 27° |
| 2026-05-06 17:41 | 51.70410 | 20.54498 | 34235 ft | 479 kts | 27° |
| 2026-05-06 17:41 | 51.73293 | 20.57191 | 34464 ft | 479 kts | 27° |
| 2026-05-06 17:41 | 51.76161 | 20.59874 | 34709 ft | 478 kts | 27° |
| 2026-05-06 17:42 | 51.81953 | 20.65303 | 34781 ft | 484 kts | 27° |
| 2026-05-06 17:42 | 51.87759 | 20.70765 | 34771 ft | 481 kts | 27° |
| 2026-05-06 17:43 | 51.93502 | 20.76187 | 34776 ft | 476 kts | 27° |
| 2026-05-06 17:43 | 51.99214 | 20.81592 | 34778 ft | 475 kts | 27° |
| 2026-05-06 17:44 | 52.04918 | 20.87006 | 34777 ft | 474 kts | 27° |
| 2026-05-06 17:44 | 52.10611 | 20.92425 | 34774 ft | 474 kts | 27° |
| 2026-05-06 17:45 | 52.16311 | 20.97868 | 34781 ft | 475 kts | 28° |
| 2026-05-06 17:45 | 52.21979 | 21.03296 | 34777 ft | 476 kts | 28° |
| 2026-05-06 17:46 | 52.27692 | 21.08784 | 34780 ft | 477 kts | 28° |
| 2026-05-06 17:46 | 52.33420 | 21.14303 | 34792 ft | 479 kts | 28° |
| 2026-05-06 17:47 | 52.39166 | 21.19856 | 34781 ft | 480 kts | 28° |
| 2026-05-06 17:47 | 52.44927 | 21.25442 | 34774 ft | 481 kts | 28° |
| 2026-05-06 17:48 | 52.50689 | 21.31045 | 34773 ft | 482 kts | 28° |
| 2026-05-06 17:48 | 52.56469 | 21.36683 | 34779 ft | 482 kts | 28° |
| 2026-05-06 17:49 | 52.62202 | 21.42293 | 34769 ft | 483 kts | 28° |
| 2026-05-06 17:49 | 52.67981 | 21.47965 | 34769 ft | 483 kts | 28° |
| 2026-05-06 17:50 | 52.73743 | 21.53638 | 34771 ft | 482 kts | 28° |
| 2026-05-06 17:50 | 52.79502 | 21.59326 | 34775 ft | 482 kts | 28° |
| 2026-05-06 17:51 | 52.85260 | 21.65030 | 34767 ft | 482 kts | 28° |
| 2026-05-06 17:51 | 52.91015 | 21.70749 | 34767 ft | 482 kts | 28° |
| 2026-05-06 17:52 | 52.96774 | 21.76491 | 34771 ft | 482 kts | 28° |
| 2026-05-06 17:52 | 53.02527 | 21.82244 | 34776 ft | 483 kts | 28° |
| 2026-05-06 17:53 | 53.08277 | 21.88013 | 34766 ft | 483 kts | 28° |
| 2026-05-06 17:53 | 53.14017 | 21.93794 | 34762 ft | 482 kts | 29° |
| 2026-05-06 17:54 | 53.19715 | 21.99544 | 34767 ft | 481 kts | 29° |
| 2026-05-06 17:54 | 53.25441 | 22.05341 | 34771 ft | 482 kts | 29° |
| 2026-05-06 17:55 | 53.31169 | 22.11161 | 34761 ft | 482 kts | 29° |
| 2026-05-06 17:55 | 53.36894 | 22.16996 | 34763 ft | 482 kts | 29° |
| 2026-05-06 17:56 | 53.42618 | 22.22848 | 34766 ft | 482 kts | 29° |
| 2026-05-06 17:56 | 53.48332 | 22.28710 | 34767 ft | 482 kts | 29° |
| 2026-05-06 17:57 | 53.54046 | 22.34590 | 34769 ft | 481 kts | 29° |
| 2026-05-06 17:57 | 53.59766 | 22.40494 | 34769 ft | 481 kts | 29° |
| 2026-05-06 17:58 | 53.65469 | 22.46401 | 34790 ft | 481 kts | 29° |
| 2026-05-06 17:58 | 53.71176 | 22.52331 | 34778 ft | 482 kts | 29° |
| 2026-05-06 17:59 | 53.76871 | 22.58267 | 34778 ft | 482 kts | 29° |
| 2026-05-06 17:59 | 53.82582 | 22.64239 | 34779 ft | 483 kts | 29° |
| 2026-05-06 18:00 | 53.84474 | 22.66222 | 34786 ft | 483 kts | 29° |